createdAt,value
2018-11-12T00:00:12.899Z,7.90
2018-11-12T00:02:42.211Z,7.90
2018-11-12T00:05:10.767Z,7.90
2018-11-12T00:07:39.575Z,8.00
2018-11-12T00:10:08.667Z,7.90
2018-11-12T00:12:37.479Z,7.90
2018-11-12T00:15:08.017Z,8.00
2018-11-12T00:17:36.603Z,8.00
2018-11-12T00:20:06.144Z,8.00
2018-11-12T00:22:34.879Z,8.00
2018-11-12T00:25:03.451Z,8.00
2018-11-12T00:27:32.002Z,8.00
2018-11-12T00:30:00.611Z,8.00
2018-11-12T00:32:29.184Z,8.00
2018-11-12T00:34:57.778Z,8.00
2018-11-12T00:37:26.347Z,8.10
2018-11-12T00:39:54.914Z,8.00
2018-11-12T00:42:23.457Z,8.00
2018-11-12T00:44:52.000Z,8.10
2018-11-12T00:47:20.534Z,8.00
2018-11-12T00:49:49.074Z,8.10
2018-11-12T00:52:17.610Z,8.10
2018-11-12T00:54:46.139Z,8.10
2018-11-12T00:57:14.755Z,8.10
2018-11-12T00:59:43.510Z,8.10
2018-11-12T01:02:12.079Z,8.10
2018-11-12T01:04:40.685Z,8.10
2018-11-12T01:07:09.247Z,8.10
2018-11-12T01:09:38.082Z,8.10
2018-11-12T01:12:07.391Z,8.10
2018-11-12T01:14:36.551Z,8.10
2018-11-12T01:17:05.847Z,8.10
2018-11-12T01:19:34.388Z,8.10
2018-11-12T01:22:02.927Z,8.10
2018-11-12T01:24:31.483Z,8.10
2018-11-12T01:27:00.050Z,8.10
2018-11-12T01:29:28.591Z,8.20
2018-11-12T01:31:57.139Z,8.10
2018-11-12T01:34:25.692Z,8.20
2018-11-12T01:36:54.227Z,8.10
2018-11-12T01:39:22.795Z,8.20
2018-11-12T01:41:51.376Z,8.20
2018-11-12T01:44:19.905Z,8.20
2018-11-12T01:46:48.447Z,8.20
2018-11-12T01:49:17.350Z,8.20
2018-11-12T01:51:45.903Z,8.20
2018-11-12T01:54:14.495Z,8.20
2018-11-12T01:56:43.067Z,8.20
2018-11-12T01:59:11.602Z,8.20
2018-11-12T02:01:40.220Z,8.20
2018-11-12T02:04:08.746Z,8.20
2018-11-12T02:06:37.295Z,8.20
2018-11-12T02:09:10.513Z,8.20
2018-11-12T02:11:39.616Z,8.20
2018-11-12T02:14:09.403Z,8.20
2018-11-12T02:16:37.983Z,8.20
2018-11-12T02:19:06.887Z,8.20
2018-11-12T02:21:35.458Z,8.30
2018-11-12T02:24:04.043Z,8.20
2018-11-12T02:26:32.587Z,8.30
2018-11-12T02:29:01.126Z,8.30
2018-11-12T02:31:29.674Z,8.30
2018-11-12T02:33:58.230Z,8.30
2018-11-12T02:36:26.767Z,8.30
2018-11-12T02:38:55.302Z,8.30
2018-11-12T02:41:23.846Z,8.30
2018-11-12T02:43:52.387Z,8.30
2018-11-12T02:46:20.972Z,8.20
2018-11-12T02:48:49.519Z,8.30
2018-11-12T02:51:18.069Z,8.30
2018-11-12T02:53:46.826Z,8.30
2018-11-12T02:56:15.461Z,8.30
2018-11-12T02:58:44.031Z,8.40
2018-11-12T03:01:12.641Z,8.30
2018-11-12T03:03:41.183Z,8.30
2018-11-12T03:06:09.735Z,8.30
2018-11-12T03:08:38.375Z,8.30
2018-11-12T03:11:06.927Z,8.30
2018-11-12T03:13:35.531Z,8.30
2018-11-12T03:16:04.327Z,8.30
2018-11-12T03:18:32.862Z,8.30
2018-11-12T03:21:01.467Z,8.30
2018-11-12T03:23:30.019Z,8.40
2018-11-12T03:25:58.573Z,8.40
2018-11-12T03:28:27.136Z,8.30
2018-11-12T03:30:55.708Z,8.40
2018-11-12T03:33:24.276Z,8.40
2018-11-12T03:35:52.819Z,8.40
2018-11-12T03:38:21.715Z,8.40
2018-11-12T03:40:50.252Z,8.40
2018-11-12T03:43:18.799Z,8.40
2018-11-12T03:45:47.371Z,8.40
2018-11-12T03:48:15.913Z,8.40
2018-11-12T03:50:44.491Z,8.40
2018-11-12T03:53:13.027Z,8.40
2018-11-12T03:55:41.571Z,8.40
2018-11-12T03:58:10.160Z,8.40
2018-11-12T04:00:38.695Z,8.40
2018-11-12T04:03:07.255Z,8.40
2018-11-12T04:05:35.833Z,8.40
2018-11-12T04:08:04.471Z,8.50
2018-11-12T04:10:33.005Z,8.40
2018-11-12T04:13:01.543Z,8.40
2018-11-12T04:15:30.082Z,8.40
2018-11-12T04:17:58.618Z,8.40
2018-11-12T04:20:27.171Z,8.40
2018-11-12T04:22:59.927Z,8.40
2018-11-12T04:25:28.467Z,8.50
2018-11-12T04:27:57.022Z,8.40
2018-11-12T04:30:25.598Z,8.50
2018-11-12T04:32:54.139Z,8.50
2018-11-12T04:35:22.685Z,8.50
2018-11-12T04:37:51.247Z,8.50
2018-11-12T04:40:20.411Z,8.50
2018-11-12T04:42:49.349Z,8.50
2018-11-12T04:45:19.074Z,8.50
2018-11-12T04:47:48.859Z,8.50
2018-11-12T04:50:19.715Z,8.50
2018-11-12T04:52:48.695Z,8.50
2018-11-12T04:55:18.676Z,8.50
2018-11-12T04:57:47.699Z,8.50
2018-11-12T05:00:22.346Z,8.50
2018-11-12T05:02:50.977Z,8.50
2018-11-12T05:05:21.127Z,8.60
2018-11-12T05:07:49.679Z,8.50
2018-11-12T05:10:21.367Z,8.60
2018-11-12T05:12:50.878Z,8.60
2018-11-12T05:15:20.794Z,8.60
2018-11-12T05:17:49.343Z,8.60
2018-11-12T05:20:19.803Z,8.60
2018-11-12T05:22:48.378Z,8.60
2018-11-12T05:25:16.932Z,8.70
2018-11-12T05:27:45.483Z,8.70
2018-11-12T05:30:21.911Z,8.70
2018-11-12T05:32:50.468Z,8.70
2018-11-12T05:35:20.522Z,8.70
2018-11-12T05:37:49.105Z,8.70
2018-11-12T05:40:19.116Z,8.70
2018-11-12T05:42:47.722Z,8.60
2018-11-12T05:45:17.351Z,8.70
2018-11-12T05:47:45.897Z,8.70
2018-11-12T05:50:16.815Z,8.60
2018-11-12T05:52:46.643Z,8.70
2018-11-12T05:55:16.580Z,8.70
2018-11-12T05:57:45.628Z,8.70
2018-11-12T06:00:16.110Z,8.70
2018-11-12T06:02:44.659Z,8.70
2018-11-12T06:05:14.220Z,8.70
2018-11-12T06:07:43.175Z,8.70
2018-11-12T06:10:20.206Z,8.70
2018-11-12T06:12:48.916Z,8.70
2018-11-12T06:15:17.939Z,8.70
2018-11-12T06:17:47.378Z,8.80
2018-11-12T06:20:21.099Z,8.80
2018-11-12T06:22:49.790Z,8.80
2018-11-12T06:25:19.638Z,8.80
2018-11-12T06:27:48.427Z,8.80
2018-11-12T06:30:19.653Z,8.80
2018-11-12T06:32:48.559Z,8.80
2018-11-12T06:35:17.660Z,8.80
2018-11-12T06:37:47.159Z,8.80
2018-11-12T06:40:17.895Z,8.80
2018-11-12T06:42:46.554Z,8.80
2018-11-12T06:45:19.134Z,8.70
2018-11-12T06:47:48.862Z,8.80
2018-11-12T06:50:19.600Z,8.80
2018-11-12T06:52:48.193Z,8.80
2018-11-12T06:55:17.708Z,8.80
2018-11-12T06:57:46.847Z,8.80
2018-11-12T07:00:24.241Z,8.80
2018-11-12T07:02:53.303Z,8.80
2018-11-12T07:05:22.363Z,8.80
2018-11-12T07:07:50.998Z,8.80
2018-11-12T07:10:20.879Z,8.90
2018-11-12T07:12:50.211Z,8.80
2018-11-12T07:15:20.083Z,8.80
2018-11-12T07:17:48.618Z,8.90
2018-11-12T07:20:18.641Z,8.80
2018-11-12T07:22:47.259Z,8.80
2018-11-12T07:25:17.220Z,8.70
2018-11-12T07:27:45.752Z,8.70
2018-11-12T07:30:17.939Z,8.70
2018-11-12T07:32:47.323Z,8.70
2018-11-12T07:35:16.535Z,8.70
2018-11-12T07:37:47.567Z,8.70
2018-11-12T07:40:17.082Z,8.70
2018-11-12T07:42:45.721Z,8.70
2018-11-12T07:45:16.904Z,8.70
2018-11-12T07:47:46.315Z,8.70
2018-11-12T07:50:16.323Z,8.70
2018-11-12T07:52:45.425Z,8.70
2018-11-12T07:55:16.675Z,8.70
2018-11-12T07:57:46.607Z,8.70
2018-11-12T08:00:20.500Z,8.60
2018-11-12T08:02:49.953Z,8.70
2018-11-12T08:05:19.090Z,8.70
2018-11-12T08:07:47.682Z,8.70
2018-11-12T08:10:17.591Z,8.70
2018-11-12T08:12:47.265Z,8.80
2018-11-12T08:15:17.223Z,8.80
2018-11-12T08:17:45.872Z,8.80
2018-11-12T08:20:16.836Z,8.80
2018-11-12T08:22:46.479Z,8.80
2018-11-12T08:25:15.030Z,8.80
2018-11-12T08:27:44.220Z,8.80
2018-11-12T08:30:16.295Z,8.80
2018-11-12T08:32:45.742Z,8.90
2018-11-12T08:35:14.691Z,8.90
2018-11-12T08:37:43.825Z,8.90
2018-11-12T08:40:15.387Z,8.90
2018-11-12T08:42:44.537Z,8.90
2018-11-12T08:45:13.868Z,9.00
2018-11-12T08:47:43.955Z,9.00
2018-11-12T08:50:15.583Z,9.00
2018-11-12T08:52:45.763Z,9.00
2018-11-12T08:55:16.879Z,9.00
2018-11-12T08:57:47.298Z,9.00
2018-11-12T09:00:16.802Z,9.00
2018-11-12T09:02:45.434Z,9.00
2018-11-12T09:05:14.997Z,9.10
2018-11-12T09:07:45.315Z,9.10
2018-11-12T09:10:16.567Z,9.10
2018-11-12T09:12:45.670Z,9.10
2018-11-12T09:15:14.652Z,9.10
2018-11-12T09:17:44.157Z,9.10
2018-11-12T09:20:15.112Z,9.20
2018-11-12T09:22:43.671Z,9.20
2018-11-12T09:25:15.724Z,9.30
2018-11-12T09:27:44.461Z,9.30
2018-11-12T09:30:17.130Z,9.30
2018-11-12T09:32:45.935Z,9.30
2018-11-12T09:35:21.920Z,9.20
2018-11-12T09:37:51.667Z,9.30
2018-11-12T09:40:29.187Z,9.30
2018-11-12T09:42:57.754Z,9.30
2018-11-12T09:45:26.340Z,9.20
2018-11-12T09:47:54.925Z,9.30
2018-11-12T09:50:24.924Z,9.20
2018-11-12T09:52:54.798Z,9.20
2018-11-12T09:55:24.298Z,9.30
2018-11-12T09:57:57.543Z,9.30
2018-11-12T10:00:26.269Z,9.30
2018-11-12T10:02:55.195Z,9.40
2018-11-12T10:05:24.403Z,9.40
2018-11-12T10:07:58.476Z,9.50
2018-11-12T10:10:45.498Z,9.50
2018-11-12T10:13:18.043Z,9.50
2018-11-12T10:15:48.321Z,9.50
2018-11-12T10:20:41.700Z,9.60
2018-11-12T10:23:10.267Z,9.60
2018-11-12T10:25:38.830Z,9.60
2018-11-12T10:28:07.416Z,9.60
2018-11-12T10:30:35.971Z,9.70
2018-11-12T10:33:05.078Z,9.70
2018-11-12T10:35:33.611Z,9.70
2018-11-12T10:38:02.659Z,9.70
2018-11-12T10:40:31.210Z,9.70
2018-11-12T10:42:59.762Z,9.70
2018-11-12T10:45:28.301Z,9.70
2018-11-12T10:47:56.886Z,9.70
2018-11-12T10:50:25.444Z,9.60
2018-11-12T10:52:53.996Z,9.60
2018-11-12T10:55:24.203Z,9.70
2018-11-12T10:57:53.027Z,9.70
2018-11-12T11:00:31.452Z,9.70
2018-11-12T11:03:06.811Z,9.70
2018-11-12T11:05:36.203Z,9.60
2018-11-12T11:08:04.825Z,9.60
2018-11-12T11:10:33.438Z,9.70
2018-11-12T11:13:03.175Z,9.70
2018-11-12T11:15:33.587Z,9.70
2018-11-12T11:18:01.979Z,9.70
2018-11-12T11:20:30.870Z,9.70
2018-11-12T11:22:59.659Z,9.70
2018-11-12T11:25:28.214Z,9.60
2018-11-12T11:27:56.783Z,9.60
2018-11-12T11:30:25.361Z,9.60
2018-11-12T11:32:54.401Z,9.60
2018-11-12T11:35:23.090Z,9.50
2018-11-12T11:37:51.717Z,9.60
2018-11-12T11:40:23.707Z,9.60
2018-11-12T11:42:52.207Z,9.50
2018-11-12T11:45:21.411Z,9.50
2018-11-12T11:47:50.988Z,9.50
2018-11-12T11:50:23.328Z,9.50
2018-11-12T11:52:51.763Z,9.50
2018-11-12T11:55:21.590Z,9.50
2018-11-12T11:57:50.702Z,9.40
2018-11-12T12:00:22.427Z,9.50
2018-11-12T12:02:52.046Z,9.50
2018-11-12T12:05:21.407Z,9.50
2018-11-12T12:07:50.638Z,9.40
2018-11-12T12:10:19.209Z,9.50
2018-11-12T12:12:48.625Z,9.40
2018-11-12T12:15:18.315Z,9.40
2018-11-12T12:17:46.939Z,9.40
2018-11-12T12:20:24.092Z,9.40
2018-11-12T12:22:52.917Z,9.40
2018-11-12T12:25:21.557Z,9.40
2018-11-12T12:27:50.418Z,9.30
2018-11-12T12:30:20.692Z,9.30
2018-11-12T12:32:50.140Z,9.40
2018-11-12T12:35:18.703Z,9.30
2018-11-12T12:37:47.690Z,9.30
2018-11-12T12:40:17.867Z,9.40
2018-11-12T12:42:46.409Z,9.40
2018-11-12T12:45:16.582Z,9.40
2018-11-12T12:47:45.607Z,9.40
2018-11-12T12:50:15.091Z,9.50
2018-11-12T12:52:43.656Z,9.50
2018-11-12T12:55:13.289Z,9.50
2018-11-12T12:57:42.534Z,9.40
2018-11-12T13:00:19.599Z,9.40
2018-11-12T13:02:48.355Z,9.40
2018-11-12T13:05:16.916Z,9.40
2018-11-12T13:07:45.472Z,9.40
2018-11-12T13:10:16.467Z,9.40
2018-11-12T13:12:45.029Z,9.40
2018-11-12T13:15:15.962Z,9.50
2018-11-12T13:17:45.315Z,9.50
2018-11-12T13:20:15.299Z,9.50
2018-11-12T13:22:44.514Z,9.50
2018-11-12T13:25:13.084Z,9.40
2018-11-12T13:27:42.013Z,9.50
2018-11-12T13:30:13.053Z,9.50
2018-11-12T13:32:42.044Z,9.50
2018-11-12T13:35:12.087Z,9.50
2018-11-12T13:37:40.651Z,9.50
2018-11-12T13:40:13.027Z,9.50
2018-11-12T13:42:42.751Z,9.50
2018-11-12T13:45:11.507Z,9.50
2018-11-12T13:47:40.674Z,9.50
2018-11-12T13:50:15.140Z,9.50
2018-11-12T13:52:43.892Z,9.50
2018-11-12T13:55:13.703Z,9.50
2018-11-12T13:57:42.295Z,9.50
2018-11-12T14:00:15.527Z,9.40
2018-11-12T14:02:45.081Z,9.40
2018-11-12T14:05:15.663Z,9.40
2018-11-12T14:07:45.322Z,9.40
2018-11-12T14:10:16.198Z,9.40
2018-11-12T14:12:45.347Z,9.40
2018-11-12T14:15:15.994Z,9.40
2018-11-12T14:17:45.314Z,9.40
2018-11-12T14:20:14.160Z,9.30
2018-11-12T14:22:42.674Z,9.30
2018-11-12T14:25:13.005Z,9.30
2018-11-12T14:27:41.623Z,9.30
2018-11-12T14:30:13.778Z,9.30
2018-11-12T14:32:42.324Z,9.30
2018-11-12T14:35:11.631Z,9.20
2018-11-12T14:37:41.019Z,9.30
2018-11-12T14:40:11.005Z,9.20
2018-11-12T14:42:39.730Z,9.30
2018-11-12T14:45:11.286Z,9.30
2018-11-12T14:47:39.829Z,9.30
2018-11-12T14:50:08.952Z,9.40
2018-11-12T14:52:37.491Z,9.30
2018-11-12T14:55:07.567Z,9.30
2018-11-12T14:57:36.604Z,9.30
2018-11-12T15:00:10.003Z,9.30
2018-11-12T15:02:38.643Z,9.30
2018-11-12T15:05:07.210Z,9.30
2018-11-12T15:07:35.753Z,9.30
2018-11-12T15:10:04.886Z,9.30
2018-11-12T15:12:33.443Z,9.30
2018-11-12T15:15:02.039Z,9.30
2018-11-12T15:17:30.575Z,9.30
2018-11-12T15:19:59.135Z,9.30
2018-11-12T15:22:27.717Z,9.30
2018-11-12T15:24:56.287Z,9.20
2018-11-12T15:27:24.827Z,9.20
2018-11-12T15:29:53.363Z,9.20
2018-11-12T15:32:21.905Z,9.20
2018-11-12T15:34:50.443Z,9.20
2018-11-12T15:37:19.093Z,9.20
2018-11-12T15:39:47.599Z,9.20
2018-11-12T15:42:16.146Z,9.20
2018-11-12T15:44:44.712Z,9.20
2018-11-12T15:47:13.262Z,9.20
2018-11-12T15:49:42.045Z,9.10
2018-11-12T15:52:10.595Z,9.10
2018-11-12T15:54:39.157Z,9.00
2018-11-12T15:57:07.742Z,9.10
2018-11-12T15:59:36.298Z,9.00
2018-11-12T16:02:04.895Z,9.00
2018-11-12T16:04:33.437Z,9.10
2018-11-12T16:07:01.984Z,9.10
2018-11-12T16:09:30.560Z,9.00
2018-11-12T16:11:59.156Z,9.10
2018-11-12T16:14:27.662Z,9.00
2018-11-12T16:16:56.638Z,9.10
2018-11-12T16:19:25.208Z,9.00
2018-11-12T16:21:53.738Z,9.00
2018-11-12T16:24:22.284Z,9.00
2018-11-12T16:26:50.817Z,9.10
2018-11-12T16:29:19.371Z,9.00
2018-11-12T16:31:47.908Z,9.00
2018-11-12T16:34:16.496Z,8.90
2018-11-12T16:36:45.056Z,8.90
2018-11-12T16:39:13.618Z,8.90
2018-11-12T16:41:42.178Z,8.90
2018-11-12T16:44:11.380Z,8.90
2018-11-12T16:46:39.915Z,8.90
2018-11-12T16:49:08.467Z,8.90
2018-11-12T16:51:37.059Z,8.90
2018-11-12T16:54:06.107Z,8.80
2018-11-12T16:56:34.654Z,8.80
2018-11-12T16:59:03.195Z,8.80
2018-11-12T17:01:31.775Z,8.80
2018-11-12T17:04:00.331Z,8.80
2018-11-12T17:06:28.879Z,8.80
2018-11-12T17:08:57.418Z,8.80
2018-11-12T17:11:26.238Z,8.80
2018-11-12T17:13:54.788Z,8.80
2018-11-12T17:16:23.331Z,8.80
2018-11-12T17:18:51.922Z,8.80
2018-11-12T17:21:20.468Z,8.80
2018-11-12T17:23:49.005Z,8.80
2018-11-12T17:26:17.668Z,8.80
2018-11-12T17:28:46.219Z,8.80
2018-11-12T17:31:14.770Z,8.80
2018-11-12T17:33:43.336Z,8.80
2018-11-12T17:36:11.896Z,8.80
2018-11-12T17:38:40.463Z,8.80
2018-11-12T17:41:09.010Z,8.90
2018-11-12T17:43:37.555Z,8.90
2018-11-12T17:46:06.197Z,8.90
2018-11-12T17:48:34.756Z,8.90
2018-11-12T17:51:03.311Z,9.00
2018-11-12T17:53:31.852Z,9.00
2018-11-12T17:56:00.410Z,9.00
2018-11-12T17:58:28.958Z,9.00
2018-11-12T18:00:57.500Z,8.90
2018-11-12T18:03:26.043Z,9.00
2018-11-12T18:05:54.563Z,8.90
2018-11-12T18:08:23.139Z,8.90
2018-11-12T18:10:51.683Z,8.90
2018-11-12T18:13:20.232Z,9.00
2018-11-12T18:15:48.795Z,8.90
2018-11-12T18:18:17.320Z,8.90
2018-11-12T18:20:45.873Z,8.90
2018-11-12T18:23:14.521Z,8.90
2018-11-12T18:25:42.983Z,8.90
2018-11-12T18:28:11.514Z,8.90
2018-11-12T18:30:40.300Z,8.90
2018-11-12T18:33:08.633Z,8.80
2018-11-12T18:35:37.223Z,8.90
2018-11-12T18:38:06.183Z,8.80
2018-11-12T18:40:34.667Z,8.80
2018-11-12T18:43:03.201Z,8.80
2018-11-12T18:45:33.725Z,8.80
2018-11-12T18:48:04.868Z,8.80
2018-11-12T18:50:35.459Z,8.80
2018-11-12T18:53:06.060Z,8.80
2018-11-12T18:55:34.751Z,8.80
2018-11-12T18:58:03.403Z,8.80
2018-11-12T19:00:32.035Z,8.90
2018-11-12T19:03:00.678Z,8.90
2018-11-12T19:05:29.777Z,8.90
2018-11-12T19:08:00.409Z,8.90
2018-11-12T19:10:30.269Z,8.90
2018-11-12T19:12:58.886Z,8.90
2018-11-12T19:15:29.189Z,8.80
2018-11-12T19:17:59.335Z,8.80
2018-11-12T19:20:27.925Z,8.90
2018-11-12T19:22:56.496Z,8.90
2018-11-12T19:25:25.137Z,8.80
2018-11-12T19:27:53.823Z,8.80
2018-11-12T19:30:23.706Z,8.80
2018-11-12T19:32:52.337Z,8.90
2018-11-12T19:35:22.170Z,8.90
2018-11-12T19:37:50.734Z,8.90
2018-11-12T19:40:21.328Z,8.90
2018-11-12T19:42:51.091Z,8.90
2018-11-12T19:45:19.683Z,8.90
2018-11-12T19:47:49.398Z,8.90
2018-11-12T19:50:21.504Z,8.90
2018-11-12T19:52:53.132Z,8.90
2018-11-12T19:55:23.588Z,8.90
2018-11-12T19:57:52.209Z,8.90
2018-11-12T20:00:24.991Z,8.90
2018-11-12T20:02:54.786Z,8.80
2018-11-12T20:05:23.391Z,8.90
2018-11-12T20:07:51.939Z,8.90
2018-11-12T20:10:21.519Z,8.90
2018-11-12T20:12:50.086Z,8.90
2018-11-12T20:15:19.925Z,8.90
2018-11-12T20:17:49.518Z,8.90
2018-11-12T20:20:19.966Z,8.90
2018-11-12T20:22:49.322Z,8.90
2018-11-12T20:25:18.759Z,8.90
2018-11-12T20:27:47.813Z,8.90
2018-11-12T20:30:21.393Z,8.90
2018-11-12T20:32:49.921Z,8.90
2018-11-12T20:35:18.483Z,8.90
2018-11-12T20:37:47.011Z,8.90
2018-11-12T20:40:16.127Z,8.90
2018-11-12T20:42:45.799Z,8.90
2018-11-12T20:45:15.494Z,8.90
2018-11-12T20:47:45.076Z,8.90
2018-11-12T20:50:14.699Z,8.90
2018-11-12T20:52:43.683Z,8.90
2018-11-12T20:55:13.271Z,8.90
2018-11-12T20:57:42.221Z,8.80
2018-11-12T21:00:13.495Z,8.80
2018-11-12T21:02:43.696Z,8.80
2018-11-12T21:05:12.928Z,8.80
2018-11-12T21:07:41.462Z,8.80
2018-11-12T21:10:12.395Z,8.80
2018-11-12T21:12:40.924Z,8.80
2018-11-12T21:15:10.983Z,8.80
2018-11-12T21:17:39.527Z,8.80
2018-11-12T21:20:09.896Z,8.80
2018-11-12T21:22:38.470Z,8.80
2018-11-12T21:25:08.599Z,8.80
2018-11-12T21:27:37.263Z,8.80
2018-11-12T21:30:07.908Z,8.80
2018-11-12T21:32:36.460Z,8.80
2018-11-12T21:35:05.520Z,8.80
2018-11-12T21:37:34.070Z,8.80
2018-11-12T21:40:02.631Z,8.80
2018-11-12T21:42:31.231Z,8.80
2018-11-12T21:44:59.766Z,8.80
2018-11-12T21:47:28.291Z,8.80
2018-11-12T21:49:56.862Z,8.70
2018-11-12T21:52:25.391Z,8.70
2018-11-12T21:54:54.130Z,8.70
2018-11-12T21:57:22.661Z,8.70
2018-11-12T21:59:51.309Z,8.80
2018-11-12T22:02:19.763Z,8.70
2018-11-12T22:04:48.291Z,8.70
2018-11-12T22:07:16.857Z,8.80
2018-11-12T22:09:45.402Z,8.80
2018-11-12T22:12:13.945Z,8.80
2018-11-12T22:14:42.543Z,8.80
2018-11-12T22:17:11.101Z,8.80
2018-11-12T22:19:39.708Z,8.80
2018-11-12T22:22:08.196Z,8.80
2018-11-12T22:24:36.735Z,8.80
2018-11-12T22:27:05.432Z,8.80
2018-11-12T22:29:33.991Z,8.80
2018-11-12T22:32:02.522Z,8.80
2018-11-12T22:34:31.046Z,8.80
2018-11-12T22:36:59.598Z,8.80
2018-11-12T22:39:28.127Z,8.70
2018-11-12T22:41:56.943Z,8.70
2018-11-12T22:44:25.617Z,8.70
2018-11-12T22:46:54.155Z,8.70
2018-11-12T22:49:22.700Z,8.70
2018-11-12T22:51:51.237Z,8.70
2018-11-12T22:54:19.839Z,8.70
2018-11-12T22:56:48.368Z,8.70
2018-11-12T22:59:16.910Z,8.60
2018-11-12T23:01:45.505Z,8.60
2018-11-12T23:04:14.046Z,8.60
2018-11-12T23:06:42.586Z,8.60
2018-11-12T23:09:14.828Z,8.70
2018-11-12T23:11:43.488Z,8.70
2018-11-12T23:14:12.650Z,8.60
2018-11-12T23:16:41.494Z,8.60
2018-11-12T23:19:10.120Z,8.70
2018-11-12T23:21:39.219Z,8.70
2018-11-12T23:24:08.187Z,8.60
2018-11-12T23:26:37.036Z,8.70
2018-11-12T23:29:06.276Z,8.60
2018-11-12T23:31:34.809Z,8.60
2018-11-12T23:34:03.363Z,8.50
2018-11-12T23:36:32.185Z,8.50
2018-11-12T23:39:00.732Z,8.50
2018-11-12T23:41:29.255Z,8.50
2018-11-12T23:43:57.772Z,8.50
2018-11-12T23:46:26.316Z,8.50
2018-11-12T23:48:54.901Z,8.50
2018-11-12T23:51:23.433Z,8.50
2018-11-12T23:53:51.984Z,8.50
2018-11-12T23:56:20.520Z,8.40
2018-11-12T23:58:49.055Z,8.40
